Time;durP1;ratioP1;P1;durP2;ratioP2;P2;SDS_P1;SDS_P2;PMS_P1;PMS_P2;Temp;Humidity;BMP_temperature;BMP_pressure;BME280_temperature;BME280_humidity;BME280_pressure;Samples;Min_cycle;Max_cycle;Signal;HPM_P1;HPM_P2
2021/06/02 00:02:02;;;;;;;7.95;6.03;;;12.10;84.20;;;;;;5113734;28;20026;-69
2021/06/02 00:04:32;;;;;;;7.72;5.88;;;12.10;84.20;;;;;;5113308;28;20023;-69
2021/06/02 00:07:00;;;;;;;8.20;5.90;;;12.00;84.60;;;;;;5113520;28;20024;-69
2021/06/02 00:09:28;;;;;;;10.10;6.47;;;12.00;84.80;;;;;;5111706;28;20083;-69
2021/06/02 00:11:57;;;;;;;10.00;5.93;;;11.90;85.50;;;;;;5113763;28;20020;-69
2021/06/02 00:14:25;;;;;;;9.40;7.00;;;11.90;86.00;;;;;;5113199;28;20020;-69
2021/06/02 00:16:52;;;;;;;11.00;6.47;;;11.90;86.60;;;;;;5113621;28;20114;-69
2021/06/02 00:19:18;;;;;;;8.80;5.93;;;11.90;87.00;;;;;;5112997;28;20446;-69
2021/06/02 00:21:44;;;;;;;9.65;6.40;;;11.90;87.50;;;;;;5113642;28;20039;-67
2021/06/02 00:24:09;;;;;;;10.63;6.55;;;11.90;87.70;;;;;;5112833;28;20389;-68
2021/06/02 00:26:36;;;;;;;8.43;6.43;;;11.90;87.60;;;;;;5111741;28;20027;-67
2021/06/02 00:29:04;;;;;;;11.57;6.72;;;11.80;87.80;;;;;;5112193;28;20027;-70
2021/06/02 00:31:32;;;;;;;11.02;6.82;;;11.70;88.20;;;;;;5077745;28;20030;-67
2021/06/02 00:33:59;;;;;;;10.15;7.00;;;11.80;88.50;;;;;;5106057;28;20462;-69
2021/06/02 00:36:26;;;;;;;9.48;6.45;;;11.80;88.70;;;;;;5112304;28;20099;-72
2021/06/02 00:38:53;;;;;;;9.60;7.07;;;11.70;89.00;;;;;;5096365;28;20052;-68
2021/06/02 00:41:19;;;;;;;9.25;6.65;;;11.70;90.00;;;;;;5113375;28;20024;-67
2021/06/02 00:43:47;;;;;;;9.90;7.05;;;11.70;89.80;;;;;;5111268;28;20019;-67
2021/06/02 00:46:14;;;;;;;8.73;6.60;;;11.70;90.00;;;;;;5112859;28;20016;-68
2021/06/02 00:48:42;;;;;;;11.98;7.47;;;11.60;90.10;;;;;;5111163;28;20066;-67
2021/06/02 00:51:08;;;;;;;13.77;7.20;;;11.60;90.50;;;;;;5111953;28;20027;-68
2021/06/02 00:53:35;;;;;;;9.05;6.57;;;11.70;90.50;;;;;;5112627;28;20026;-68
2021/06/02 00:56:06;;;;;;;14.63;7.57;;;11.60;90.50;;;;;;5111254;28;20523;-68
2021/06/02 00:58:42;;;;;;;11.80;7.65;;;11.60;90.70;;;;;;5112810;28;20081;-68
2021/06/02 01:01:08;;;;;;;;;;;11.60;90.90;;;;;;5113943;28;20423;-68
2021/06/02 01:03:35;;;;;;;12.82;7.60;;;11.60;90.80;;;;;;5113180;28;20361;-68
2021/06/02 01:06:02;;;;;;;10.50;7.47;;;11.50;91.00;;;;;;5110999;28;20081;-68
2021/06/02 01:08:29;;;;;;;9.60;6.78;;;11.50;91.30;;;;;;5112337;28;20027;-70
2021/06/02 01:10:56;;;;;;;12.95;7.70;;;11.50;91.50;;;;;;5110875;28;20062;-68
2021/06/02 01:13:22;;;;;;;10.23;6.85;;;11.40;91.80;;;;;;5112224;28;20024;-68
2021/06/02 01:15:50;;;;;;;10.68;6.75;;;11.50;91.90;;;;;;5112555;28;20385;-68
2021/06/02 01:18:17;;;;;;;10.77;7.45;;;11.40;92.10;;;;;;5111845;28;20031;-69
2021/06/02 01:20:43;;;;;;;10.48;7.65;;;11.40;92.30;;;;;;5114900;28;20405;-69
2021/06/02 01:23:11;;;;;;;11.60;7.40;;;11.40;92.60;;;;;;5115060;28;20479;-69
2021/06/02 01:25:39;;;;;;;10.85;7.13;;;11.40;92.50;;;;;;5117208;28;20034;-68
2021/06/02 01:28:05;;;;;;;13.30;6.80;;;11.40;92.60;;;;;;5116596;28;20149;-69
2021/06/02 01:30:31;;;;;;;10.00;6.95;;;11.40;92.70;;;;;;5115241;28;20359;-69
2021/06/02 01:33:03;;;;;;;9.25;6.57;;;11.40;92.90;;;;;;5115130;28;20027;-69
2021/06/02 01:35:54;;;;;;;9.88;6.55;;;11.40;93.00;;;;;;5115415;28;20034;-69
2021/06/02 01:38:45;;;;;;;11.15;6.05;;;11.40;93.00;;;;;;5115292;28;20028;-69
2021/06/02 01:41:19;;;;;;;8.98;6.53;;;11.40;93.10;;;;;;5116683;28;20431;-69
2021/06/02 01:44:03;;;;;;;9.07;6.15;;;11.40;93.20;;;;;;5090222;28;20058;-69
2021/06/02 01:46:28;;;;;;;11.05;6.25;;;11.40;93.20;;;;;;5114440;28;20020;-69
2021/06/02 01:49:15;;;;;;;11.95;6.90;;;11.40;93.30;;;;;;5116599;28;20083;-69
2021/06/02 01:52:19;;;;;;;8.57;6.65;;;11.40;93.40;;;;;;5115132;28;20024;-69
2021/06/02 01:54:55;;;;;;;10.10;6.57;;;11.40;93.50;;;;;;5098235;28;20799;-69
2021/06/02 01:57:38;;;;;;;9.18;6.75;;;11.40;93.60;;;;;;5114665;28;20106;-69
2021/06/02 02:00:19;;;;;;;9.02;6.40;;;11.30;93.70;;;;;;5116065;28;20038;-70
2021/06/02 02:03:37;;;;;;;10.38;6.68;;;11.30;94.00;;;;;;5115718;28;20528;-69
2021/06/02 02:06:27;;;;;;;9.48;6.28;;;11.30;94.00;;;;;;5082074;28;20047;-69
2021/06/02 02:09:14;;;;;;;10.75;6.90;;;11.30;94.10;;;;;;5115668;28;20033;-70
2021/06/02 02:11:42;;;;;;;8.48;6.47;;;11.30;94.40;;;;;;5115929;28;20019;-68
2021/06/02 02:14:26;;;;;;;10.68;6.72;;;11.30;94.60;;;;;;5114412;28;20019;-68
2021/06/02 02:16:58;;;;;;;11.73;6.53;;;11.30;94.60;;;;;;5115917;28;20054;-69
2021/06/02 02:19:30;;;;;;;10.98;6.20;;;11.30;94.60;;;;;;5115110;28;20386;-69
2021/06/02 02:22:32;;;;;;;9.90;6.80;;;11.30;94.70;;;;;;5115944;28;20111;-69
2021/06/02 02:25:09;;;;;;;11.40;6.85;;;11.30;94.80;;;;;;5090907;28;20035;-69
2021/06/02 02:28:00;;;;;;;11.32;6.75;;;11.30;95.10;;;;;;5113749;28;20031;-69
2021/06/02 02:30:53;;;;;;;12.52;6.38;;;11.30;95.20;;;;;;5115131;28;20065;-74
2021/06/02 02:33:35;;;;;;;11.60;7.32;;;11.30;95.30;;;;;;5091718;28;20477;-69
2021/06/02 02:36:13;;;;;;;10.60;6.50;;;11.40;95.50;;;;;;5115248;28;20550;-69
2021/06/02 02:38:57;;;;;;;10.10;6.60;;;11.40;95.50;;;;;;5115029;28;20489;-69
2021/06/02 02:41:46;;;;;;;10.38;6.70;;;11.40;95.50;;;;;;5115396;28;20378;-69
2021/06/02 02:44:36;;;;;;;10.55;6.50;;;11.40;95.60;;;;;;5115463;28;20046;-69
2021/06/02 02:47:17;;;;;;;10.05;6.43;;;11.40;95.50;;;;;;5083092;28;20039;-72
2021/06/02 02:49:59;;;;;;;9.07;5.80;;;11.40;95.60;;;;;;5107883;28;20020;-73
2021/06/02 02:53:09;;;;;;;9.15;5.93;;;11.40;95.70;;;;;;5088780;28;20466;-75
2021/06/02 02:55:36;;;;;;;8.88;5.68;;;11.40;95.80;;;;;;5032134;28;20503;-73
2021/06/02 02:58:09;;;;;;;9.70;6.10;;;11.40;95.80;;;;;;5098599;28;20067;-74
2021/06/02 03:00:48;;;;;;;9.27;5.80;;;11.50;95.90;;;;;;5114770;28;20100;-74
2021/06/02 03:03:30;;;;;;;9.95;5.82;;;11.50;96.00;;;;;;5113645;28;20381;-74
2021/06/02 03:06:14;;;;;;;9.93;5.38;;;11.50;96.10;;;;;;5087765;28;20033;-73
2021/06/02 03:09:01;;;;;;;8.80;5.20;;;11.50;95.90;;;;;;5112828;28;20059;-74
2021/06/02 03:11:44;;;;;;;7.05;5.00;;;11.50;96.00;;;;;;5113532;28;20035;-74
2021/06/02 03:14:22;;;;;;;7.30;5.20;;;11.50;96.10;;;;;;5114704;28;20466;-73
2021/06/02 03:16:59;;;;;;;8.73;5.60;;;11.50;96.10;;;;;;5113151;28;20032;-73
2021/06/02 03:19:51;;;;;;;9.43;6.30;;;11.50;96.00;;;;;;5114769;28;20080;-73
2021/06/02 03:22:25;;;;;;;10.35;5.70;;;11.50;96.10;;;;;;5113870;28;20148;-73
2021/06/02 03:25:03;;;;;;;9.48;5.28;;;11.50;96.20;;;;;;5113073;28;20118;-73
2021/06/02 03:27:56;;;;;;;10.10;6.25;;;11.50;96.10;;;;;;5114357;28;20028;-73
2021/06/02 03:30:41;;;;;;;9.27;6.03;;;11.50;96.30;;;;;;5103607;28;20043;-73
2021/06/02 03:33:36;;;;;;;9.23;5.70;;;11.50;96.30;;;;;;5086997;28;20039;-73
2021/06/02 03:36:02;;;;;;;7.60;5.43;;;11.50;96.20;;;;;;5114258;28;20088;-73
2021/06/02 03:38:47;;;;;;;9.20;5.88;;;11.40;96.50;;;;;;5112260;28;20020;-74
2021/06/02 03:41:23;;;;;;;9.10;6.28;;;11.40;96.50;;;;;;5113899;28;20031;-73
2021/06/02 03:44:30;;;;;;;10.15;5.88;;;11.40;96.70;;;;;;5112344;28;20380;-73
2021/06/02 03:47:21;;;;;;;9.48;5.65;;;11.50;96.80;;;;;;5040634;28;20034;-73
2021/06/02 03:50:00;;;;;;;9.20;5.80;;;11.50;96.70;;;;;;5114204;28;20035;-73
2021/06/02 03:52:41;;;;;;;8.93;5.97;;;11.50;96.90;;;;;;5087359;28;20612;-77
2021/06/02 03:55:12;;;;;;;7.43;5.40;;;11.50;97.00;;;;;;5106859;28;20035;-74
2021/06/02 03:58:20;;;;;;;9.20;5.78;;;11.50;97.00;;;;;;5101017;28;20023;-72
2021/06/02 04:00:52;;;;;;;12.80;5.45;;;11.50;97.00;;;;;;5107310;28;20545;-66
2021/06/02 04:03:22;;;;;;;9.60;5.50;;;11.50;97.00;;;;;;5097353;28;20020;-72
2021/06/02 04:06:08;;;;;;;8.55;5.15;;;11.60;97.00;;;;;;5100175;28;20485;-74
2021/06/02 04:08:57;;;;;;;8.82;5.40;;;11.50;97.10;;;;;;5089161;28;20046;-74
2021/06/02 04:11:32;;;;;;;8.13;5.32;;;11.50;97.10;;;;;;5089536;28;20051;-74
2021/06/02 04:14:02;;;;;;;8.25;6.35;;;11.50;97.20;;;;;;5091035;28;20028;-73
2021/06/02 04:16:32;;;;;;;8.88;5.80;;;11.60;97.40;;;;;;5094815;28;20082;-73
2021/06/02 04:19:03;;;;;;;7.40;5.30;;;11.50;97.20;;;;;;5093110;28;20069;-74
2021/06/02 04:21:29;;;;;;;8.63;5.43;;;11.50;97.30;;;;;;5088146;28;20167;-74
2021/06/02 04:23:56;;;;;;;9.20;6.63;;;11.50;97.40;;;;;;5085841;28;20071;-75
2021/06/02 04:26:28;;;;;;;23.35;13.75;;;11.60;97.80;;;;;;5098017;28;20119;-75
2021/06/02 04:28:57;;;;;;;18.10;10.70;;;11.60;97.70;;;;;;5088445;28;20484;-76
2021/06/02 04:31:26;;;;;;;12.10;8.32;;;11.60;97.70;;;;;;5081164;28;20020;-74
2021/06/02 04:33:56;;;;;;;7.88;6.15;;;11.60;97.80;;;;;;5088729;28;20029;-70
2021/06/02 04:36:25;;;;;;;7.88;5.60;;;11.70;97.80;;;;;;5099917;28;20123;-70
2021/06/02 04:38:54;;;;;;;7.45;5.35;;;11.70;97.80;;;;;;5087411;28;20031;-70
2021/06/02 04:41:24;;;;;;;7.68;4.95;;;11.80;97.70;;;;;;5092377;28;20028;-69
2021/06/02 04:43:52;;;;;;;8.60;5.07;;;11.80;97.80;;;;;;5096790;28;20035;-69
2021/06/02 04:46:20;;;;;;;7.43;4.90;;;11.80;97.80;;;;;;5100509;28;20036;-67
2021/06/02 04:48:50;;;;;;;10.13;4.82;;;11.80;97.80;;;;;;5111077;28;20023;-69
2021/06/02 04:52:07;;;;;;;8.07;4.57;;;11.80;97.70;;;;;;5113171;28;20020;-67
2021/06/02 04:55:06;;;;;;;6.22;4.97;;;11.80;97.60;;;;;;5092086;28;20042;-70
2021/06/02 04:58:05;;;;;;;7.22;4.20;;;11.80;97.60;;;;;;5087263;28;20039;-68
2021/06/02 05:00:58;;;;;;;7.63;4.65;;;11.80;97.70;;;;;;5112350;28;20031;-68
2021/06/02 05:03:54;;;;;;;8.40;5.45;;;11.80;97.70;;;;;;5112577;28;20024;-68
2021/06/02 05:06:41;;;;;;;7.78;5.78;;;11.80;97.80;;;;;;5081569;28;20034;-67
2021/06/02 05:09:13;;;;;;;7.28;4.70;;;11.80;98.00;;;;;;5111813;28;20030;-68
2021/06/02 05:11:57;;;;;;;6.40;4.78;;;11.80;98.10;;;;;;5112720;28;20024;-67
2021/06/02 05:14:38;;;;;;;5.72;4.13;;;11.80;98.10;;;;;;5084796;28;20024;-68
2021/06/02 05:17:42;;;;;;;6.97;4.50;;;11.80;98.20;;;;;;5112417;28;20034;-68
2021/06/02 05:23:49;;;;;;;6.22;4.60;;;11.90;98.10;;;;;;5089008;28;20046;-68
2021/06/02 05:26:20;;;;;;;8.20;5.47;;;11.80;98.00;;;;;;5112192;28;20031;-68
2021/06/02 05:29:14;;;;;;;8.15;5.05;;;11.80;98.20;;;;;;5111926;28;20028;-68
2021/06/02 05:31:48;;;;;;;8.23;5.40;;;11.80;98.40;;;;;;5089371;28;20022;-68
2021/06/02 05:34:51;;;;;;;8.55;5.25;;;11.90;98.50;;;;;;5112396;28;20039;-68
2021/06/02 05:37:19;;;;;;;10.57;4.88;;;11.90;98.30;;;;;;5112424;28;20465;-69
2021/06/02 05:40:16;;;;;;;9.32;5.25;;;12.00;98.40;;;;;;5111977;28;20069;-69
2021/06/02 05:42:45;;;;;;;8.85;5.25;;;12.00;98.30;;;;;;5110649;28;20024;-69
2021/06/02 05:45:52;;;;;;;7.53;4.70;;;12.00;98.50;;;;;;5112323;28;20035;-69
2021/06/02 05:49:04;;;;;;;8.18;5.20;;;12.10;98.40;;;;;;5109697;28;20084;-69
2021/06/02 05:51:51;;;;;;;7.85;4.78;;;12.10;98.10;;;;;;5112087;28;20426;-69
2021/06/02 05:54:43;;;;;;;8.23;4.95;;;12.10;98.10;;;;;;5089854;28;20047;-70
2021/06/02 05:57:50;;;;;;;7.47;5.10;;;12.20;98.00;;;;;;5112027;28;20024;-69
2021/06/02 06:00:41;;;;;;;9.68;5.35;;;12.20;97.90;;;;;;5109744;28;20037;-76
2021/06/02 06:03:22;;;;;;;8.73;5.47;;;12.20;98.00;;;;;;5077053;28;20036;-70
2021/06/02 06:06:11;;;;;;;9.80;5.45;;;12.20;97.90;;;;;;5081767;28;20031;-68
2021/06/02 06:09:30;;;;;;;8.05;5.40;;;12.30;98.00;;;;;;5084228;28;20025;-69
2021/06/02 06:12:14;;;;;;;10.18;5.53;;;12.30;97.90;;;;;;5078689;28;20167;-68
2021/06/02 06:14:56;;;;;;;9.00;5.85;;;12.30;97.70;;;;;;5093847;27;20036;-69
2021/06/02 06:17:56;;;;;;;9.13;5.30;;;12.30;97.90;;;;;;5077398;28;20024;-73
2021/06/02 06:20:37;;;;;;;7.93;5.47;;;12.30;97.70;;;;;;5075982;28;20040;-73
2021/06/02 06:23:11;;;;;;;8.18;5.65;;;12.30;97.80;;;;;;5075010;28;20520;-74
2021/06/02 06:26:18;;;;;;;9.20;6.03;;;12.30;97.80;;;;;;5098687;28;20038;-73
2021/06/02 06:29:15;;;;;;;7.88;5.53;;;12.40;97.80;;;;;;5053030;28;20122;-73
2021/06/02 06:31:44;;;;;;;8.20;5.25;;;12.40;97.70;;;;;;5095067;28;20085;-74
2021/06/02 06:34:23;;;;;;;10.32;5.07;;;12.40;97.70;;;;;;5088399;28;20033;-72
2021/06/02 06:36:53;;;;;;;7.43;5.05;;;12.50;97.50;;;;;;5106350;28;20027;-61
2021/06/02 06:39:56;;;;;;;7.55;5.40;;;12.50;97.50;;;;;;5102200;28;20043;-73
2021/06/02 06:42:26;;;;;;;9.05;5.75;;;12.60;97.50;;;;;;5089398;28;20450;-73
2021/06/02 06:45:04;;;;;;;10.52;6.55;;;12.60;97.50;;;;;;5093621;28;20073;-75
2021/06/02 06:47:33;;;;;;;10.75;4.95;;;12.60;97.20;;;;;;5087457;28;20470;-74
2021/06/02 06:50:00;;;;;;;6.88;4.80;;;12.60;97.20;;;;;;5094590;28;20060;-74
2021/06/02 06:52:28;;;;;;;8.80;5.03;;;12.70;97.30;;;;;;5096744;28;20235;-73
2021/06/02 06:54:57;;;;;;;8.90;5.25;;;12.70;97.30;;;;;;5088443;28;20047;-77
2021/06/02 06:57:25;;;;;;;8.90;4.75;;;12.70;97.10;;;;;;5084059;28;20065;-73
2021/06/02 06:59:51;;;;;;;7.82;5.28;;;12.80;97.20;;;;;;5092611;28;20526;-75
2021/06/02 07:02:18;;;;;;;7.10;5.30;;;12.80;97.10;;;;;;5096361;28;20028;-73
2021/06/02 07:04:45;;;;;;;7.60;5.63;;;12.90;97.10;;;;;;5090164;28;20505;-73
2021/06/02 07:07:13;;;;;;;9.52;4.85;;;12.90;96.90;;;;;;5090106;28;20020;-74
2021/06/02 07:09:39;;;;;;;8.15;5.10;;;12.90;96.80;;;;;;5110521;28;20028;-73
2021/06/02 07:12:06;;;;;;;8.32;5.57;;;12.90;96.60;;;;;;5106504;28;20043;-73
2021/06/02 07:14:34;;;;;;;7.13;4.43;;;12.90;96.50;;;;;;5106584;28;20036;-73
2021/06/02 07:17:05;;;;;;;10.25;6.15;;;12.90;96.50;;;;;;5104628;28;20381;-73
2021/06/02 07:19:32;;;;;;;7.20;4.70;;;12.90;96.50;;;;;;5089013;28;20026;-75
2021/06/02 07:21:59;;;;;;;9.15;5.60;;;13.00;96.40;;;;;;5105308;28;20047;-74
2021/06/02 07:24:25;;;;;;;6.97;4.10;;;13.10;96.40;;;;;;5105956;28;20027;-75
2021/06/02 07:26:51;;;;;;;8.15;4.85;;;13.10;96.20;;;;;;5111983;28;20026;-74
2021/06/02 07:29:17;;;;;;;6.03;4.60;;;13.10;95.90;;;;;;5106055;28;21199;-74
2021/06/02 07:31:43;;;;;;;6.70;4.38;;;13.10;95.90;;;;;;5108144;28;20034;-74
2021/06/02 07:34:09;;;;;;;10.57;4.70;;;13.10;95.70;;;;;;5104854;28;20497;-73
2021/06/02 07:36:36;;;;;;;8.48;4.70;;;13.10;95.60;;;;;;5108558;28;20028;-73
2021/06/02 07:39:03;;;;;;;8.30;4.30;;;13.10;95.70;;;;;;5106948;28;20019;-73
2021/06/02 07:41:29;;;;;;;8.95;4.72;;;13.20;95.70;;;;;;5107879;28;20030;-73
2021/06/02 07:43:55;;;;;;;8.77;4.70;;;13.20;95.60;;;;;;5111210;28;20024;-73
2021/06/02 07:46:21;;;;;;;6.65;4.70;;;13.20;95.40;;;;;;5107003;28;20449;-73
2021/06/02 07:48:46;;;;;;;7.63;4.13;;;13.20;95.30;;;;;;5111725;28;20024;-74
2021/06/02 07:51:12;;;;;;;9.90;3.92;;;13.20;95.20;;;;;;5113342;28;20537;-74
2021/06/02 07:53:38;;;;;;;10.02;4.30;;;13.20;95.30;;;;;;5113274;28;20023;-74
2021/06/02 07:56:04;;;;;;;8.38;4.10;;;13.30;95.10;;;;;;5114181;28;20031;-73
2021/06/02 07:58:29;;;;;;;6.63;4.00;;;13.30;94.90;;;;;;5113234;28;20032;-73
2021/06/02 08:00:55;;;;;;;6.47;3.88;;;13.40;94.80;;;;;;5113352;28;20031;-74
2021/06/02 08:03:20;;;;;;;12.07;4.25;;;13.40;94.60;;;;;;5112978;28;20023;-73
2021/06/02 08:05:46;;;;;;;10.63;4.63;;;13.40;94.20;;;;;;5113945;28;20363;-74
2021/06/02 08:08:12;;;;;;;8.15;3.83;;;13.50;94.40;;;;;;5112233;28;20377;-74
2021/06/02 08:10:37;;;;;;;7.75;3.85;;;13.50;94.20;;;;;;5111530;28;20034;-74
2021/06/02 08:13:03;;;;;;;7.90;3.97;;;13.50;94.00;;;;;;5113869;28;20024;-73
2021/06/02 08:15:30;;;;;;;7.50;3.70;;;13.50;93.90;;;;;;5111565;28;20036;-74
2021/06/02 08:17:57;;;;;;;7.78;4.32;;;13.50;93.50;;;;;;5111946;28;20057;-74
2021/06/02 08:20:23;;;;;;;7.82;5.47;;;13.50;93.60;;;;;;5113415;28;20046;-73
2021/06/02 08:22:49;;;;;;;13.18;6.40;;;13.60;93.60;;;;;;5111325;28;20382;-74
2021/06/02 08:25:17;;;;;;;10.00;5.15;;;13.60;93.40;;;;;;5111752;28;20023;-74
2021/06/02 08:27:44;;;;;;;9.88;4.93;;;13.60;93.30;;;;;;5111449;28;20072;-74
2021/06/02 08:30:10;;;;;;;7.70;4.78;;;13.50;93.10;;;;;;5111514;28;20452;-74
2021/06/02 08:32:36;;;;;;;10.45;6.75;;;13.50;93.30;;;;;;5106895;28;20034;-74
2021/06/02 08:35:03;;;;;;;8.43;4.93;;;13.50;93.70;;;;;;5088730;28;20028;-73
2021/06/02 08:37:29;;;;;;;9.02;5.00;;;13.60;94.00;;;;;;5112979;28;20039;-74
2021/06/02 08:39:55;;;;;;;9.57;5.90;;;13.70;94.30;;;;;;5111976;28;20027;-74
2021/06/02 08:42:21;;;;;;;10.05;4.70;;;13.70;94.20;;;;;;5112889;28;20036;-73
2021/06/02 08:44:47;;;;;;;9.05;4.57;;;13.60;93.70;;;;;;5111106;28;20031;-74
2021/06/02 08:47:13;;;;;;;7.82;4.20;;;13.60;93.60;;;;;;5112993;28;20055;-74
2021/06/02 08:49:39;;;;;;;8.98;4.43;;;13.50;93.50;;;;;;5113361;28;20049;-73
2021/06/02 08:52:07;;;;;;;8.13;4.10;;;13.50;93.70;;;;;;5111161;28;20073;-74
2021/06/02 08:54:33;;;;;;;7.35;4.15;;;13.50;93.80;;;;;;5111134;28;20031;-74
2021/06/02 08:57:03;;;;;;;6.35;4.20;;;13.50;93.70;;;;;;5111266;28;20563;-74
2021/06/02 08:59:29;;;;;;;6.47;4.10;;;13.40;93.70;;;;;;5112380;28;20040;-74
2021/06/02 09:01:55;;;;;;;10.15;4.50;;;13.40;93.90;;;;;;5112611;28;20058;-75
2021/06/02 09:04:21;;;;;;;9.18;4.22;;;13.40;93.90;;;;;;5113115;28;20055;-74
2021/06/02 09:06:47;;;;;;;8.07;3.83;;;13.40;94.00;;;;;;5112059;28;20464;-74
2021/06/02 09:09:15;;;;;;;5.95;4.15;;;13.40;93.80;;;;;;5112582;28;20039;-73
2021/06/02 09:11:47;;;;;;;6.75;4.22;;;13.40;94.10;;;;;;5112712;28;20050;-74
2021/06/02 09:14:30;;;;;;;6.28;3.75;;;13.50;94.20;;;;;;5110921;28;20036;-73
2021/06/02 09:17:02;;;;;;;6.93;4.03;;;13.50;94.10;;;;;;5112766;28;20027;-73
2021/06/02 09:19:38;;;;;;;6.22;3.95;;;13.50;94.30;;;;;;5112019;28;20024;-73
2021/06/02 09:22:12;;;;;;;7.30;4.03;;;13.60;94.40;;;;;;5112609;28;20035;-74
2021/06/02 09:24:55;;;;;;;9.00;4.38;;;13.60;94.20;;;;;;5110800;28;20039;-73
2021/06/02 09:27:42;;;;;;;6.95;4.28;;;13.60;94.20;;;;;;5112112;28;20016;-73
2021/06/02 09:30:10;;;;;;;9.38;4.38;;;13.60;94.50;;;;;;5112774;28;20020;-73
2021/06/02 09:32:51;;;;;;;9.55;5.05;;;13.70;94.70;;;;;;5111483;28;20236;-73
2021/06/02 09:35:17;;;;;;;8.23;4.30;;;13.80;95.20;;;;;;5111509;28;20122;-73
2021/06/02 09:38:01;;;;;;;9.30;4.20;;;13.80;94.70;;;;;;5111974;28;20103;-75
2021/06/02 09:40:36;;;;;;;7.97;4.30;;;13.80;94.50;;;;;;5112374;28;20015;-74
2021/06/02 09:43:03;;;;;;;7.55;3.85;;;13.80;94.60;;;;;;5114548;28;20037;-75
2021/06/02 09:45:29;;;;;;;9.38;5.00;;;13.80;94.50;;;;;;5114894;28;20030;-74
2021/06/02 09:48:06;;;;;;;8.43;4.57;;;13.80;94.50;;;;;;5114635;28;20023;-74
2021/06/02 09:50:37;;;;;;;5.50;3.85;;;13.80;94.80;;;;;;5115686;28;20072;-74
2021/06/02 09:53:05;;;;;;;7.53;4.22;;;13.70;94.70;;;;;;5115970;28;20024;-74
2021/06/02 09:55:35;;;;;;;7.50;5.03;;;13.70;94.70;;;;;;5114584;28;20028;-74
2021/06/02 09:58:06;;;;;;;8.55;4.85;;;13.70;95.10;;;;;;5116620;28;20024;-74
2021/06/02 10:00:53;;;;;;;7.25;4.80;;;13.70;95.20;;;;;;5115728;28;20027;-74
2021/06/02 10:03:20;;;;;;;15.63;9.98;;;13.70;95.50;;;;;;5116513;28;20453;-74
2021/06/02 10:05:48;;;;;;;9.57;5.40;;;13.70;95.60;;;;;;5115559;28;20034;-74
2021/06/02 10:08:35;;;;;;;9.45;5.13;;;13.70;95.70;;;;;;5114752;28;20042;-75
2021/06/02 10:11:20;;;;;;;7.20;4.00;;;13.70;95.80;;;;;;5081599;28;20029;-75
2021/06/02 10:13:52;;;;;;;9.30;4.60;;;13.80;95.60;;;;;;5110776;28;20023;-74
2021/06/02 10:16:46;;;;;;;8.68;4.75;;;13.80;95.80;;;;;;5115932;28;20730;-74
2021/06/02 10:19:12;;;;;;;11.02;4.88;;;13.80;95.80;;;;;;5114648;28;20471;-74
2021/06/02 10:21:45;;;;;;;8.70;6.10;;;13.90;95.90;;;;;;5114199;28;20075;-74
2021/06/02 10:24:11;;;;;;;9.32;5.57;;;13.90;95.90;;;;;;5114251;28;20147;-73
2021/06/02 10:26:38;;;;;;;9.43;4.78;;;13.90;96.10;;;;;;5113666;28;20164;-73
2021/06/02 10:29:06;;;;;;;9.00;4.60;;;14.00;96.10;;;;;;5114978;28;20429;-74
2021/06/02 10:31:32;;;;;;;7.72;5.15;;;14.10;96.20;;;;;;5115906;28;20358;-73
2021/06/02 10:33:57;;;;;;;8.27;5.15;;;14.20;96.20;;;;;;5115172;28;20032;-73
2021/06/02 10:36:25;;;;;;;7.28;4.90;;;14.20;96.00;;;;;;5114667;27;20381;-74
2021/06/02 10:38:57;;;;;;;13.75;8.88;;;14.30;96.10;;;;;;5114483;28;20423;-73
2021/06/02 10:41:26;;;;;;;6.90;4.15;;;14.40;96.00;;;;;;5114912;28;20389;-74
2021/06/02 10:43:56;;;;;;;8.85;5.30;;;14.50;95.80;;;;;;5114034;28;20032;-74
2021/06/02 10:46:26;;;;;;;14.85;7.65;;;14.50;95.70;;;;;;5113920;28;20458;-73
2021/06/02 10:48:53;;;;;;;8.27;5.95;;;14.40;95.70;;;;;;5114319;28;20027;-73
2021/06/02 10:51:28;;;;;;;10.43;5.82;;;14.50;95.60;;;;;;5113609;28;20392;-73
2021/06/02 10:54:07;;;;;;;7.57;4.32;;;14.50;95.80;;;;;;5115122;28;20015;-73
2021/06/02 10:56:34;;;;;;;7.55;4.57;;;14.50;95.60;;;;;;5114656;28;20030;-73
2021/06/02 10:59:01;;;;;;;8.98;4.78;;;14.50;95.40;;;;;;5112794;28;20034;-73
2021/06/02 11:01:30;;;;;;;9.75;5.43;;;14.50;95.60;;;;;;5114235;28;20027;-73
2021/06/02 11:04:11;;;;;;;8.68;4.50;;;14.50;96.00;;;;;;5113399;28;20107;-75
2021/06/02 11:06:39;;;;;;;9.40;5.40;;;14.50;95.80;;;;;;5112987;28;20035;-75
2021/06/02 11:09:11;;;;;;;10.05;5.07;;;14.50;95.70;;;;;;5114561;28;20016;-75
2021/06/02 11:11:41;;;;;;;12.90;5.47;;;14.50;95.80;;;;;;5114745;28;20458;-75
2021/06/02 11:14:16;;;;;;;8.30;4.55;;;14.50;96.00;;;;;;5114773;28;20106;-74
2021/06/02 11:17:02;;;;;;;6.88;4.47;;;14.50;95.90;;;;;;5114301;28;20376;-73
2021/06/02 11:19:41;;;;;;;11.80;7.20;;;14.50;96.00;;;;;;5114942;28;20504;-74
2021/06/02 11:22:09;;;;;;;9.80;5.80;;;14.50;96.10;;;;;;5113383;28;20047;-73
2021/06/02 11:24:37;;;;;;;10.18;5.13;;;14.50;96.20;;;;;;5092542;28;20028;-73
2021/06/02 11:27:12;;;;;;;7.00;4.10;;;14.60;96.30;;;;;;5105572;28;20027;-73
2021/06/02 11:29:50;;;;;;;6.47;4.30;;;14.60;96.20;;;;;;5112936;28;20502;-73
2021/06/02 11:32:23;;;;;;;6.35;4.40;;;14.70;96.00;;;;;;5114575;28;20023;-73
2021/06/02 11:34:51;;;;;;;6.68;3.80;;;14.70;96.00;;;;;;5086100;28;20031;-73
2021/06/02 11:37:22;;;;;;;10.57;5.25;;;14.80;95.90;;;;;;5113263;28;20027;-73
2021/06/02 11:39:53;;;;;;;7.55;4.35;;;14.80;96.00;;;;;;5112802;28;20428;-74
2021/06/02 11:42:30;;;;;;;9.68;4.55;;;14.80;95.80;;;;;;5113607;28;20111;-73
2021/06/02 11:44:59;;;;;;;8.27;4.75;;;14.90;95.90;;;;;;5113854;28;20030;-73
2021/06/02 11:47:26;;;;;;;7.60;4.63;;;14.90;96.00;;;;;;5112090;28;20114;-73
2021/06/02 11:50:00;;;;;;;9.68;5.25;;;14.80;96.10;;;;;;5113621;28;20131;-73
2021/06/02 11:52:27;;;;;;;7.45;4.78;;;14.90;96.40;;;;;;5113613;28;20024;-75
2021/06/02 11:55:00;;;;;;;8.38;5.07;;;14.90;96.30;;;;;;5112800;28;20492;-73
2021/06/02 11:57:30;;;;;;;8.32;4.75;;;14.90;96.50;;;;;;5087074;28;20118;-75
2021/06/02 11:59:57;;;;;;;7.53;5.13;;;14.90;96.50;;;;;;5114096;28;20032;-74
2021/06/02 12:02:23;;;;;;;9.20;5.10;;;14.90;96.70;;;;;;5113271;28;20015;-75
2021/06/02 12:04:49;;;;;;;8.75;4.82;;;14.90;96.70;;;;;;5112402;28;20034;-74
2021/06/02 12:07:26;;;;;;;7.95;5.18;;;14.90;96.70;;;;;;5113380;28;20416;-74
2021/06/02 12:09:54;;;;;;;9.63;5.78;;;14.80;96.90;;;;;;5112400;28;20055;-74
2021/06/02 12:12:21;;;;;;;11.02;5.22;;;14.80;97.30;;;;;;5113566;28;20022;-74
2021/06/02 12:14:53;;;;;;;11.32;5.85;;;14.80;97.50;;;;;;5111941;28;20040;-74
2021/06/02 12:17:25;;;;;;;8.25;5.18;;;14.80;97.80;;;;;;5112959;28;20031;-73
2021/06/02 12:19:51;;;;;;;8.63;5.13;;;14.80;97.90;;;;;;5112645;28;20020;-76
2021/06/02 12:22:21;;;;;;;10.88;5.18;;;14.80;98.00;;;;;;5111900;28;20120;-75
2021/06/02 12:25:17;;;;;;;11.02;5.88;;;14.80;98.20;;;;;;5111727;28;20111;-75
2021/06/02 12:27:50;;;;;;;10.30;5.75;;;14.80;98.20;;;;;;5111614;28;20046;-75
2021/06/02 12:30:25;;;;;;;9.57;5.53;;;14.90;98.20;;;;;;5112632;28;20032;-75
2021/06/02 12:33:06;;;;;;;9.57;5.57;;;14.80;98.20;;;;;;5111508;28;20065;-73
2021/06/02 12:35:33;;;;;;;8.32;5.38;;;14.80;98.40;;;;;;5111847;28;20040;-73
2021/06/02 12:38:38;;;;;;;11.98;5.72;;;14.80;98.50;;;;;;5111957;28;20393;-73
2021/06/02 12:41:04;;;;;;;9.85;5.63;;;14.90;98.50;;;;;;5028047;28;20061;-74
2021/06/02 12:43:41;;;;;;;9.20;5.90;;;14.90;98.70;;;;;;5030346;28;20049;-74
2021/06/02 12:46:11;;;;;;;12.57;5.65;;;14.90;98.90;;;;;;5065391;28;20039;-74
2021/06/02 12:48:37;;;;;;;9.68;5.35;;;14.90;99.00;;;;;;5111006;28;20466;-74
2021/06/02 12:51:05;;;;;;;10.45;5.72;;;14.90;98.90;;;;;;5111659;28;20028;-74
2021/06/02 12:53:36;;;;;;;11.68;6.40;;;14.90;99.10;;;;;;5111558;28;20047;-74
2021/06/02 12:56:02;;;;;;;9.27;5.50;;;14.90;99.30;;;;;;5112873;28;20039;-74
2021/06/02 12:58:31;;;;;;;9.95;5.60;;;15.00;99.20;;;;;;5110617;28;20051;-74
2021/06/02 13:01:01;;;;;;;10.52;5.55;;;14.90;99.40;;;;;;5113475;28;20110;-74
2021/06/02 13:03:27;;;;;;;8.98;5.40;;;15.00;99.30;;;;;;5112622;28;20039;-75
2021/06/02 13:05:53;;;;;;;8.68;5.93;;;15.00;99.40;;;;;;5084123;28;20055;-74
2021/06/02 13:08:19;;;;;;;10.45;6.15;;;15.00;99.40;;;;;;5104425;28;20073;-74
2021/06/02 13:10:46;;;;;;;10.75;5.80;;;15.00;99.60;;;;;;5109721;28;20081;-74
2021/06/02 13:13:13;;;;;;;12.38;5.90;;;15.00;99.70;;;;;;5111897;28;20032;-75
2021/06/02 13:15:42;;;;;;;8.85;5.78;;;15.10;99.90;;;;;;5110612;28;20073;-75
2021/06/02 13:18:20;;;;;;;10.60;6.00;;;15.10;99.90;;;;;;5112924;28;20054;-75
2021/06/02 13:20:46;;;;;;;9.38;5.80;;;15.20;99.90;;;;;;5111493;28;20145;-74
2021/06/02 13:23:19;;;;;;;8.50;5.18;;;15.20;99.90;;;;;;5107709;28;20048;-75
2021/06/02 13:26:09;;;;;;;9.07;5.82;;;15.30;99.80;;;;;;5106876;28;20473;-75